createdAt,value
2019-02-27T00:05:58.007Z,50.10
2019-02-27T00:16:00.188Z,50.40
2019-02-27T00:26:02.566Z,50.60
2019-02-27T00:36:04.518Z,50.90
2019-02-27T00:46:07.542Z,51.50
2019-02-27T00:56:11.976Z,51.90
2019-02-27T01:06:14.812Z,52.30
2019-02-27T01:16:17.846Z,52.60
2019-02-27T01:26:20.082Z,53.10
2019-02-27T01:36:24.527Z,53.50
2019-02-27T01:46:27.859Z,53.90
2019-02-27T01:56:29.862Z,54.30
2019-02-27T02:06:32.510Z,54.70
2019-02-27T02:17:21.350Z,55.80
2019-02-27T02:27:48.535Z,55.20
2019-02-27T02:38:38.003Z,55.10
2019-02-27T02:49:19.071Z,55.00
2019-02-27T03:00:05.060Z,55.30
2019-02-27T03:10:22.098Z,55.60
2019-02-27T03:20:44.175Z,55.90
2019-02-27T03:31:03.225Z,55.60
2019-02-27T03:41:58.481Z,55.20
2019-02-27T03:52:40.284Z,55.00
2019-02-27T04:02:55.221Z,55.00
2019-02-27T04:12:57.369Z,54.90
2019-02-27T04:22:59.617Z,55.00
2019-02-27T04:33:01.613Z,54.60
2019-02-27T04:43:03.532Z,54.50
2019-02-27T04:53:05.663Z,54.60
2019-02-27T05:03:07.852Z,54.70
2019-02-27T05:13:10.292Z,54.70
2019-02-27T05:23:13.089Z,54.70
2019-02-27T05:33:15.060Z,54.50
2019-02-27T05:43:17.232Z,53.90
2019-02-27T05:53:22.130Z,53.80
2019-02-27T06:03:22.967Z,53.80
2019-02-27T06:13:24.906Z,53.50
2019-02-27T06:23:28.647Z,53.30
2019-02-27T06:33:30.779Z,52.70
2019-02-27T06:43:33.045Z,52.50
2019-02-27T06:53:35.285Z,52.70
2019-02-27T07:03:37.539Z,52.80
2019-02-27T07:13:39.791Z,52.50
2019-02-27T07:23:41.885Z,52.70
2019-02-27T07:33:43.859Z,52.40
2019-02-27T07:43:46.123Z,52.60
2019-02-27T07:53:48.477Z,52.70
2019-02-27T08:03:50.448Z,51.80
2019-02-27T08:13:52.678Z,50.70
2019-02-27T08:23:55.261Z,50.40
2019-02-27T08:33:57.519Z,49.20
2019-02-27T08:43:59.787Z,48.30
2019-02-27T08:54:01.956Z,47.60
2019-02-27T09:04:06.069Z,45.30
2019-02-27T09:14:08.199Z,45.00
2019-02-27T09:24:10.145Z,44.90
2019-02-27T09:34:12.184Z,44.10
2019-02-27T09:44:14.315Z,43.60
2019-02-27T09:54:16.491Z,43.50
2019-02-27T10:04:18.808Z,43.30
2019-02-27T10:14:21.014Z,43.40
2019-02-27T10:24:22.994Z,43.00
2019-02-27T10:34:24.967Z,42.00
2019-02-27T10:44:26.891Z,41.00
2019-02-27T10:54:29.169Z,40.70
2019-02-27T11:04:31.241Z,40.60
2019-02-27T11:14:33.471Z,39.90
2019-02-27T11:24:35.393Z,39.40
2019-02-27T11:34:37.582Z,39.20
2019-02-27T11:44:39.608Z,38.80
2019-02-27T11:54:43.321Z,37.90
2019-02-27T12:04:45.822Z,36.70
2019-02-27T12:14:48.056Z,36.80
2019-02-27T12:24:52.561Z,36.40
2019-02-27T12:34:54.087Z,36.40
2019-02-27T12:44:56.378Z,35.60
2019-02-27T12:54:59.071Z,35.60
2019-02-27T13:05:02.650Z,35.10
2019-02-27T13:15:07.361Z,34.10
2019-02-27T13:25:08.834Z,31.70
2019-02-27T13:35:11.188Z,34.10
2019-02-27T13:45:15.951Z,33.40
2019-02-27T13:55:18.215Z,32.70
2019-02-27T14:05:20.494Z,32.60
2019-02-27T14:15:26.833Z,32.30
2019-02-27T14:25:31.049Z,31.60
2019-02-27T14:35:35.213Z,31.70
2019-02-27T14:45:39.476Z,31.20
2019-02-27T14:55:39.348Z,31.50
2019-02-27T15:05:44.713Z,31.80
2019-02-27T15:15:45.186Z,31.60
2019-02-27T15:25:47.586Z,30.20
2019-02-27T15:35:49.515Z,31.00
2019-02-27T15:45:51.969Z,31.80
2019-02-27T15:55:54.369Z,32.10
2019-02-27T16:05:56.606Z,32.40
2019-02-27T16:15:58.581Z,32.50
2019-02-27T16:26:01.653Z,33.20
2019-02-27T16:36:03.042Z,34.20
2019-02-27T16:46:08.642Z,34.30
2019-02-27T16:56:12.010Z,35.10
2019-02-27T17:06:14.129Z,35.40
2019-02-27T17:16:16.865Z,36.30
2019-02-27T17:26:19.014Z,37.20
2019-02-27T17:36:20.982Z,38.10
2019-02-27T17:46:23.457Z,38.60
2019-02-27T17:56:25.413Z,39.30
2019-02-27T18:06:27.373Z,40.00
2019-02-27T18:16:29.349Z,40.60
2019-02-27T18:26:31.351Z,41.30
2019-02-27T18:36:42.424Z,41.70
2019-02-27T18:46:37.460Z,42.30
2019-02-27T18:56:40.347Z,42.70
2019-02-27T19:06:45.790Z,43.40
2019-02-27T19:16:46.710Z,43.80
2019-02-27T19:26:49.478Z,44.10
2019-02-27T19:36:51.835Z,45.30
2019-02-27T19:46:53.918Z,45.00
2019-02-27T19:56:55.897Z,45.30
2019-02-27T20:06:58.304Z,45.70
2019-02-27T20:17:03.454Z,45.90
2019-02-27T20:27:05.457Z,46.40
2019-02-27T20:37:07.455Z,46.90
2019-02-27T20:47:09.664Z,47.10
2019-02-27T20:57:11.657Z,48.20
2019-02-27T21:07:22.049Z,47.90
2019-02-27T21:17:20.880Z,48.00
2019-02-27T21:27:21.943Z,48.30
2019-02-27T21:37:23.947Z,48.70
2019-02-27T21:47:26.242Z,48.40
2019-02-27T21:57:28.221Z,47.80
2019-02-27T22:07:33.246Z,48.10
2019-02-27T22:17:36.665Z,48.40
2019-02-27T22:27:38.299Z,48.40
2019-02-27T22:37:40.646Z,48.60
2019-02-27T22:47:43.548Z,48.70
2019-02-27T22:57:45.802Z,49.20
2019-02-27T23:07:51.687Z,49.60
2019-02-27T23:17:52.326Z,50.00
2019-02-27T23:27:54.291Z,51.10
2019-02-27T23:37:56.289Z,50.80
2019-02-27T23:47:59.289Z,50.70
2019-02-27T23:58:02.380Z,51.00
